createdAt,value
2022-10-01T00:03:35.738Z,30.07
2022-10-01T00:23:35.972Z,30.06
2022-10-01T00:43:35.959Z,30.04
2022-10-01T01:03:35.977Z,30.03
2022-10-01T01:23:35.903Z,30.03
2022-10-01T01:43:35.891Z,30.02
2022-10-01T02:23:35.843Z,29.99
2022-10-01T02:43:38.347Z,29.98
2022-10-01T03:03:35.800Z,29.97
2022-10-01T03:23:35.774Z,29.96
2022-10-01T03:43:35.759Z,29.95
2022-10-01T04:03:35.733Z,29.95
2022-10-01T04:23:35.712Z,29.95
2022-10-01T04:43:35.684Z,29.95
2022-10-01T05:03:35.662Z,29.96
2022-10-01T05:23:35.640Z,29.97
2022-10-01T05:43:35.618Z,30
2022-10-01T06:03:35.596Z,30.02
2022-10-01T06:23:35.568Z,30.03
2022-10-01T06:43:35.562Z,30.07
2022-10-01T07:03:35.258Z,30.11
2022-10-01T07:23:35.226Z,30.18
2022-10-01T07:43:35.204Z,30.23
2022-10-01T08:03:35.455Z,30.29
2022-10-01T08:23:35.427Z,30.36
2022-10-01T08:43:35.399Z,30.4
2022-10-01T09:03:35.370Z,30.45
2022-10-01T09:23:35.348Z,30.5
2022-10-01T09:43:35.312Z,30.55
2022-10-01T10:03:35.415Z,30.58
2022-10-01T10:23:34.679Z,30.6
2022-10-01T10:43:35.241Z,30.64
2022-10-01T11:03:35.194Z,30.67
2022-10-01T11:23:35.163Z,30.69
2022-10-01T11:43:35.138Z,30.7
2022-10-01T12:03:35.111Z,30.72
2022-10-01T12:43:35.053Z,53.26
2022-10-01T13:03:35.034Z,50.72
2022-10-01T15:23:34.805Z,44.86
2022-10-01T15:43:34.772Z,44.5
2022-10-01T16:03:34.736Z,44.19
2022-10-01T16:23:34.710Z,43.95
2022-10-01T16:43:34.404Z,43.71
2022-10-01T17:03:34.653Z,43.51
2022-10-01T17:23:34.615Z,43.35
2022-10-01T17:43:34.594Z,43.18
2022-10-01T18:03:34.577Z,43.06
2022-10-01T18:23:34.545Z,42.89
2022-10-01T18:43:34.520Z,42.75
2022-10-01T19:03:34.227Z,42.59
2022-10-01T19:23:34.494Z,42.48
2022-10-01T19:43:34.453Z,42.38
2022-10-01T20:03:34.406Z,42.26
2022-10-01T20:23:34.403Z,42.17
2022-10-01T20:43:34.405Z,42.07
2022-10-01T21:03:34.369Z,41.95
2022-10-01T21:43:34.038Z,41.76
2022-10-01T22:03:34.294Z,41.64
2022-10-01T22:23:34.275Z,41.56
2022-10-01T22:43:34.252Z,41.47
2022-10-01T23:03:34.245Z,41.38
2022-10-01T23:43:34.204Z,41.22
